Time;durP1;ratioP1;P1;durP2;ratioP2;P2;SDS_P1;SDS_P2;PMS_P1;PMS_P2;Temp;Humidity;BMP_temperature;BMP_pressure;BME280_temperature;BME280_humidity;BME280_pressure;Samples;Min_cycle;Max_cycle;Signal;HPM_P1;HPM_P2
2023/04/13 00:00:22;;;;;;;4.65;1.65;;;;;;;19.65;49.68;95498.50;10543300;28;20112;-48
2023/04/13 00:05:52;;;;;;;4.07;1.55;;;;;;;19.63;49.64;95495.38;10544289;28;20076;-45
2023/04/13 00:11:12;;;;;;;3.50;1.60;;;;;;;19.63;49.52;95506.19;10557408;28;20229;-45
2023/04/13 00:16:31;;;;;;;4.38;1.73;;;;;;;19.62;49.52;95515.41;10557334;28;20032;-45
2023/04/13 00:21:54;;;;;;;4.25;1.83;;;;;;;19.61;49.58;95503.06;10556814;28;20036;-45
2023/04/13 00:27:13;;;;;;;3.65;1.77;;;;;;;19.60;49.53;95496.09;10556797;28;20036;-45
2023/04/13 00:32:33;;;;;;;3.97;1.50;;;;;;;19.59;49.49;95502.63;10556647;28;20048;-46
2023/04/13 00:37:52;;;;;;;4.25;1.88;;;;;;;19.58;49.45;95503.75;10541119;28;20051;-44
2023/04/13 00:43:13;;;;;;;3.13;1.27;;;;;;;19.57;49.35;95503.00;10556000;28;20044;-46
2023/04/13 00:48:33;;;;;;;2.67;1.40;;;;;;;19.55;49.43;95500.63;10555796;28;20036;-45
2023/04/13 00:53:53;;;;;;;3.00;1.48;;;;;;;19.55;49.31;95506.03;10526592;28;20507;-45
2023/04/13 00:59:13;;;;;;;3.42;1.30;;;;;;;19.54;49.33;95506.38;10545133;28;20052;-45
2023/04/13 01:04:33;;;;;;;3.10;1.40;;;;;;;19.53;49.38;95507.53;10555342;28;20503;-45
2023/04/13 01:10:05;;;;;;;2.97;1.50;;;;;;;19.52;49.34;95508.66;10539731;28;20072;-46
2023/04/13 01:15:27;;;;;;;3.90;1.38;;;;;;;19.51;49.23;95513.28;10539645;28;20557;-45
2023/04/13 01:20:48;;;;;;;3.25;1.40;;;;;;;19.50;49.21;95509.03;10525335;28;20047;-44
2023/04/13 01:26:07;;;;;;;3.10;1.33;;;;;;;19.49;49.16;95512.09;10539181;28;20101;-44
2023/04/13 01:31:28;;;;;;;2.95;1.35;;;;;;;19.48;49.06;95519.41;10539139;28;20424;-45
2023/04/13 01:36:48;;;;;;;3.17;1.40;;;;;;;19.47;49.18;95519.75;10554192;28;20403;-45
2023/04/13 01:42:10;;;;;;;1.85;1.27;;;;;;;19.46;49.04;95527.06;10553936;28;20044;-44
2023/04/13 01:47:32;;;;;;;2.38;1.02;;;;;;;19.45;49.17;95525.50;10538449;28;20101;-45
2023/04/13 01:53:06;;;;;;;2.03;1.10;;;;;;;19.45;49.01;95539.03;10539300;28;20055;-45
2023/04/13 01:58:32;;;;;;;3.13;1.40;;;;;;;19.43;49.14;95540.50;10524193;28;20055;-46
2023/04/13 02:03:58;;;;;;;3.33;1.38;;;;;;;19.43;49.09;95532.41;10537948;28;20040;-45
2023/04/13 02:09:22;;;;;;;2.42;1.10;;;;;;;19.42;49.10;95525.44;10537894;28;20052;-45
2023/04/13 02:14:46;;;;;;;2.30;1.10;;;;;;;19.41;48.92;95532.00;10537723;28;20059;-45
2023/04/13 02:20:12;;;;;;;2.22;1.30;;;;;;;19.39;48.91;95532.34;10524075;28;20129;-45
2023/04/13 02:25:32;;;;;;;2.13;1.15;;;;;;;19.40;48.98;95549.31;10552135;28;20051;-45
2023/04/13 02:30:55;;;;;;;2.45;1.10;;;;;;;19.39;49.15;95545.06;10537418;28;20058;-47
2023/04/13 02:36:17;;;;;;;2.30;0.98;;;;;;;19.38;48.87;95546.97;10523924;28;20052;-45
2023/04/13 02:41:51;;;;;;;1.90;1.23;;;;;;;19.35;48.89;95547.69;10537078;28;20040;-45
2023/04/13 02:47:14;;;;;;;2.50;1.10;;;;;;;19.35;48.90;95544.97;10536808;28;20043;-44
2023/04/13 02:52:33;;;;;;;1.92;1.10;;;;;;;19.34;48.88;95532.59;10523218;28;20393;-45
2023/04/13 02:57:57;;;;;;;1.80;1.10;;;;;;;19.34;48.88;95551.50;10523041;28;20078;-47
2023/04/13 03:03:19;;;;;;;2.20;1.10;;;;;;;19.32;48.82;95545.66;10536772;28;20044;-45
2023/04/13 03:08:40;;;;;;;3.13;1.13;;;;;;;19.32;48.96;95548.38;10536614;28;20051;-46
2023/04/13 03:14:06;;;;;;;1.60;1.00;;;;;;;19.31;48.91;95546.81;10536555;28;20145;-45
2023/04/13 03:19:27;;;;;;;3.08;1.10;;;;;;;19.29;48.75;95563.38;10536300;28;20044;-45
2023/04/13 03:24:47;;;;;;;1.45;0.88;;;;;;;19.29;48.75;95568.00;10536363;28;20443;-46
2023/04/13 03:30:16;;;;;;;2.28;1.20;;;;;;;19.28;48.75;95566.41;10536274;28;20056;-45
2023/04/13 03:35:44;;;;;;;1.80;1.00;;;;;;;19.26;48.87;95580.25;10539655;28;20051;-45
2023/04/13 03:41:13;;;;;;;1.95;1.10;;;;;;;19.26;48.77;95582.19;10543381;28;20484;-45
2023/04/13 03:46:36;;;;;;;2.53;1.10;;;;;;;19.26;48.62;95579.47;10543305;28;20089;-45
2023/04/13 03:52:01;;;;;;;1.77;1.02;;;;;;;19.25;48.72;95584.09;10529940;28;20044;-45
2023/04/13 03:57:26;;;;;;;1.67;0.82;;;;;;;19.24;48.70;95579.06;10537351;28;20139;-45
2023/04/13 04:02:46;;;;;;;1.10;0.80;;;;;;;19.23;48.67;95593.69;10542579;28;20036;-47
2023/04/13 04:08:12;;;;;;;1.42;0.90;;;;;;;19.22;48.54;95590.19;10542386;28;20055;-46
2023/04/13 04:13:32;;;;;;;2.97;1.05;;;;;;;19.21;48.63;95596.75;10542218;28;20097;-45
2023/04/13 04:18:56;;;;;;;1.05;0.90;;;;;;;19.19;48.60;95590.91;10541898;28;20480;-45
2023/04/13 04:24:22;;;;;;;1.90;0.90;;;;;;;19.20;48.67;95605.97;10541800;28;20476;-44
2023/04/13 04:29:48;;;;;;;1.63;0.88;;;;;;;19.20;48.53;95605.19;10541674;28;20043;-46
2023/04/13 04:35:19;;;;;;;1.67;0.90;;;;;;;19.21;48.64;95621.03;10541442;28;20447;-45
2023/04/13 04:40:44;;;;;;;1.20;0.70;;;;;;;19.21;48.54;95618.34;10557075;28;20047;-45
2023/04/13 04:46:07;;;;;;;1.50;0.88;;;;;;;19.21;48.53;95614.84;10540363;28;20044;-44
2023/04/13 04:51:30;;;;;;;1.70;0.98;;;;;;;19.22;48.54;95617.19;10527032;28;20047;-44
2023/04/13 04:56:51;;;;;;;1.33;0.77;;;;;;;19.23;48.60;95632.28;10536527;28;20048;-46
2023/04/13 05:02:12;;;;;;;1.58;0.80;;;;;;;19.25;48.47;95637.31;10540116;28;20063;-44
2023/04/13 05:07:32;;;;;;;1.00;0.77;;;;;;;19.27;48.46;95640.47;10540034;28;20476;-44
2023/04/13 05:12:52;;;;;;;1.95;1.00;;;;;;;19.28;48.30;95655.53;10525882;28;20044;-47
2023/04/13 05:18:14;;;;;;;1.27;0.80;;;;;;;19.30;48.35;95662.13;10539621;28;20044;-45
2023/04/13 05:23:34;;;;;;;1.73;0.95;;;;;;;19.32;48.34;95665.25;10539132;28;20044;-47
2023/04/13 05:28:59;;;;;;;1.48;0.93;;;;;;;19.34;48.32;95684.59;10539090;28;20051;-45
2023/04/13 05:34:21;;;;;;;1.00;0.80;;;;;;;19.37;48.24;95702.03;10538952;28;20056;-45
2023/04/13 05:40:08;;;;;;;1.00;0.80;;;;;;;19.39;48.36;95701.69;10553881;28;20040;-45
2023/04/13 05:45:28;;;;;;;1.23;0.85;;;;;;;19.42;48.46;95711.78;10538431;28;20074;-45
2023/04/13 05:50:57;;;;;;;1.87;0.90;;;;;;;19.45;48.47;95705.69;10538353;28;20048;-45
2023/04/13 05:56:17;;;;;;;2.25;0.63;;;;;;;19.47;48.39;95720.41;10535369;28;20055;-46
2023/04/13 06:01:37;;;;;;;0.70;0.70;;;;;;;19.51;48.46;95723.97;10537936;28;20093;-45
2023/04/13 06:06:56;;;;;;;2.78;1.10;;;;;;;19.53;48.46;95716.31;10553145;28;20546;-46
2023/04/13 06:12:17;;;;;;;2.58;0.88;;;;;;;19.56;48.48;95728.31;10552822;28;20048;-44
2023/04/13 06:17:36;;;;;;;1.38;0.80;;;;;;;19.58;48.15;95714.47;10552858;28;20051;-45
2023/04/13 06:22:58;;;;;;;2.83;0.80;;;;;;;19.61;47.78;95721.88;10537219;28;20044;-44
2023/04/13 06:28:19;;;;;;;1.15;0.68;;;;;;;19.63;47.54;95723.09;10537302;28;20048;-46
2023/04/13 06:33:43;;;;;;;1.35;0.82;;;;;;;19.67;47.47;95725.88;10537333;28;20061;-45
2023/04/13 06:39:04;;;;;;;1.17;0.68;;;;;;;19.69;47.25;95729.03;10537142;28;20036;-45
2023/04/13 06:44:26;;;;;;;2.03;0.70;;;;;;;19.71;47.83;95721.34;10537001;28;20502;-45
2023/04/13 06:49:48;;;;;;;2.22;0.70;;;;;;;19.71;46.40;95721.34;10552184;28;20047;-45
2023/04/13 06:55:09;;;;;;;2.90;0.70;;;;;;;19.73;47.34;95733.41;10536868;28;20044;-44
2023/04/13 07:00:31;;;;;;;0.77;0.57;;;;;;;19.78;47.44;95734.25;10522612;28;20059;-46
2023/04/13 07:05:53;;;;;;;1.20;0.60;;;;;;;19.82;47.35;95735.16;10536546;28;20051;-45
2023/04/13 07:11:13;;;;;;;1.30;0.70;;;;;;;19.84;47.50;95755.28;10558083;28;20047;-44
2023/04/13 07:16:34;;;;;;;0.93;0.60;;;;;;;19.88;47.41;95764.25;10544564;28;20044;-44
2023/04/13 07:21:53;;;;;;;0.90;0.70;;;;;;;19.90;47.45;95751.16;10559323;28;20044;-45
2023/04/13 07:27:13;;;;;;;5.55;0.52;;;;;;;19.93;47.38;95764.00;10544048;28;20044;-46
2023/04/13 07:32:33;;;;;;;1.80;0.60;;;;;;;19.95;47.19;95750.09;10543766;28;20040;-45
2023/04/13 07:37:53;;;;;;;0.82;0.60;;;;;;;19.98;47.29;95775.66;10559245;28;20097;-55
2023/04/13 07:43:13;;;;;;;1.55;0.50;;;;;;;20.02;47.31;95781.94;10543349;28;20043;-56
2023/04/13 07:48:36;;;;;;;2.90;0.63;;;;;;;20.06;47.32;95793.63;10543226;28;20109;-55
2023/04/13 07:54:01;;;;;;;0.47;0.43;;;;;;;20.09;47.43;95793.69;10542686;28;20436;-55
2023/04/13 07:59:23;;;;;;;2.50;0.60;;;;;;;20.12;47.47;95803.00;10531895;28;20055;-56
2023/04/13 08:04:45;;;;;;;0.98;0.55;;;;;;;20.16;47.38;95809.28;10542592;28;20040;-56
2023/04/13 08:10:09;;;;;;;0.90;0.60;;;;;;;20.18;47.33;95815.13;10528821;28;20101;-56
2023/04/13 08:15:28;;;;;;;2.70;0.60;;;;;;;20.21;47.29;95816.34;10528040;28;20040;-56
2023/04/13 08:20:49;;;;;;;0.90;0.60;;;;;;;20.23;47.10;95824.88;10556273;28;20089;-55
2023/04/13 08:26:18;;;;;;;1.40;0.60;;;;;;;20.26;47.15;95827.66;10541602;28;20040;-56
2023/04/13 08:31:39;;;;;;;2.08;0.50;;;;;;;20.28;47.10;95828.09;10541559;28;20040;-57
2023/04/13 08:36:59;;;;;;;1.20;0.65;;;;;;;20.29;47.10;95840.50;10556546;28;20496;-56
2023/04/13 08:42:22;;;;;;;2.35;0.60;;;;;;;20.33;47.01;95835.94;10556205;28;20051;-56
2023/04/13 08:47:42;;;;;;;1.13;0.50;;;;;;;20.35;46.89;95841.78;10526666;28;20036;-55
2023/04/13 08:53:02;;;;;;;2.97;1.23;;;;;;;20.37;46.83;95840.66;10540601;28;20055;-55
2023/04/13 08:58:23;;;;;;;1.92;0.80;;;;;;;20.38;46.97;95847.63;10547741;28;20044;-55
2023/04/13 09:03:53;;;;;;;4.07;1.17;;;;;;;20.39;46.85;95846.50;10540000;28;20048;-55
2023/04/13 09:09:17;;;;;;;2.50;0.60;;;;;;;20.41;46.83;95855.84;10539984;28;20105;-54
2023/04/13 09:14:38;;;;;;;2.88;0.50;;;;;;;20.43;46.70;95855.50;10555029;28;20036;-55
2023/04/13 09:20:21;;;;;;;1.77;0.55;;;;;;;20.42;46.78;95845.78;10539411;28;20048;-56
2023/04/13 09:25:41;;;;;;;8.32;0.80;;;;;;;20.43;46.77;95844.66;10554422;28;20400;-55
2023/04/13 09:31:03;;;;;;;7.28;0.70;;;;;;;20.43;46.88;95840.03;10554321;28;20050;-54
2023/04/13 09:36:24;;;;;;;3.15;0.60;;;;;;;20.43;46.94;95831.91;10554219;28;20051;-56
2023/04/13 09:41:48;;;;;;;3.38;0.57;;;;;;;20.44;46.96;95841.59;10553996;28;20483;-56
2023/04/13 09:47:07;;;;;;;41.45;10.38;;;;;;;20.45;46.80;95842.38;10553809;28;20404;-56
2023/04/13 09:52:27;;;;;;;17.05;4.70;;;;;;;20.45;46.77;95845.88;10538307;28;20050;-56
2023/04/13 09:57:46;;;;;;;11.18;4.03;;;;;;;20.43;46.29;95833.84;10531397;28;20055;-55
2023/04/13 10:03:12;;;;;;;10.50;3.60;;;;;;;20.44;46.98;95838.09;10553232;28;20040;-55
2023/04/13 10:08:36;;;;;;;7.18;2.70;;;;;;;20.44;45.87;95844.28;10539729;28;20482;-56
2023/04/13 10:13:58;;;;;;;9.70;2.85;;;;;;;20.46;45.85;95850.13;10553058;28;20039;-56
2023/04/13 10:19:24;;;;;;;8.95;2.80;;;;;;;20.47;45.89;95842.81;10552707;28;20040;-55
2023/04/13 10:24:43;;;;;;;10.75;2.42;;;;;;;20.45;45.86;95832.34;10552665;28;20055;-56
2023/04/13 10:30:16;;;;;;;5.68;2.15;;;;;;;20.45;45.79;95831.56;10552578;28;20052;-56
2023/04/13 10:35:36;;;;;;;7.20;2.17;;;;;;;20.43;45.82;95831.13;10539044;28;20055;-55
2023/04/13 10:40:57;;;;;;;6.78;2.05;;;;;;;20.46;45.55;95820.38;10552346;28;20090;-55
2023/04/13 10:46:16;;;;;;;7.88;2.00;;;;;;;20.48;45.58;95820.03;10559078;28;20044;-55
2023/04/13 10:51:43;;;;;;;11.13;2.78;;;;;;;20.48;45.77;95822.72;10547443;28;20090;-56
2023/04/13 10:57:05;;;;;;;34.20;20.33;;;;;;;20.49;46.21;95816.19;10556090;28;20056;-55
2023/04/13 11:02:29;;;;;;;12.07;6.00;;;;;;;20.49;46.49;95814.25;10560524;28;20402;-56
2023/04/13 11:07:49;;;;;;;8.60;4.80;;;;;;;20.51;46.55;95816.63;10560414;28;20369;-56
2023/04/13 11:13:08;;;;;;;12.77;4.65;;;;;;;20.51;46.75;95813.91;10560059;28;20040;-56
2023/04/13 11:18:28;;;;;;;8.32;4.30;;;;;;;20.52;46.52;95820.88;10559906;28;20036;-55
2023/04/13 11:23:54;;;;;;;8.95;4.00;;;;;;;20.51;46.77;95824.75;10559577;28;20048;-55
2023/04/13 11:29:17;;;;;;;7.05;3.88;;;;;;;20.51;46.52;95819.34;10559402;28;20515;-55
2023/04/13 11:34:37;;;;;;;7.13;3.80;;;;;;;20.51;46.83;95819.34;10559121;28;20036;-56
2023/04/13 11:39:58;;;;;;;9.00;3.60;;;;;;;20.50;46.95;95815.03;10558926;28;20032;-56
2023/04/13 11:45:18;;;;;;;7.22;3.63;;;;;;;20.48;47.09;95820.84;10558522;28;20036;-56
2023/04/13 11:50:40;;;;;;;7.80;3.53;;;;;;;20.48;47.08;95806.50;10558326;28;20047;-55
2023/04/13 11:55:59;;;;;;;6.80;3.00;;;;;;;20.48;47.04;95815.41;10541037;28;20051;-55
2023/04/13 12:01:22;;;;;;;6.97;3.35;;;;;;;20.47;47.05;95797.59;10544591;28;20127;-55
2023/04/13 12:06:43;;;;;;;10.70;3.72;;;;;;;20.47;47.03;95799.53;10557909;28;20047;-55
2023/04/13 12:12:03;;;;;;;8.85;3.70;;;;;;;20.48;47.10;95801.09;10542339;28;20423;-56
2023/04/13 12:17:30;;;;;;;8.50;3.20;;;;;;;20.47;47.15;95794.13;10557411;28;20044;-56
2023/04/13 12:22:50;;;;;;;6.28;3.00;;;;;;;20.46;47.09;95806.84;10557138;28;20412;-56
2023/04/13 12:28:12;;;;;;;5.82;3.00;;;;;;;20.46;47.05;95790.63;10557045;28;20051;-56
2023/04/13 12:33:32;;;;;;;7.30;3.20;;;;;;;20.45;47.07;95794.47;10556771;28;20051;-56
2023/04/13 12:38:51;;;;;;;7.25;2.75;;;;;;;20.44;46.98;95798.31;10556605;28;20382;-55
2023/04/13 12:44:11;;;;;;;5.07;2.80;;;;;;;20.44;46.99;95798.31;10542441;28;20472;-56
2023/04/13 12:49:30;;;;;;;4.68;2.65;;;;;;;20.44;46.93;95798.31;10556174;28;20040;-55
2023/04/13 12:54:50;;;;;;;4.25;2.60;;;;;;;20.44;47.00;95800.22;10556065;28;20040;-56
2023/04/13 13:00:10;;;;;;;4.75;2.50;;;;;;;20.42;47.07;95795.16;10541554;28;20078;-56
2023/04/13 13:05:30;;;;;;;4.35;2.60;;;;;;;20.42;47.12;95800.56;10555166;28;20044;-56
2023/04/13 13:10:50;;;;;;;3.13;2.45;;;;;;;20.41;47.09;95793.63;10555252;28;20048;-56
2023/04/13 13:16:09;;;;;;;6.53;2.67;;;;;;;20.41;47.14;95795.53;10539801;28;20093;-56
2023/04/13 13:21:30;;;;;;;4.35;2.45;;;;;;;20.40;47.27;95794.75;10554730;28;20036;-55
2023/04/13 13:26:49;;;;;;;5.53;2.50;;;;;;;20.40;47.19;95793.97;10554668;28;20040;-56
2023/04/13 13:32:09;;;;;;;4.03;2.60;;;;;;;20.39;47.11;95784.28;10554446;28;20047;-55
2023/04/13 13:37:28;;;;;;;4.50;2.42;;;;;;;20.37;46.99;95787.34;10554183;28;20114;-55
2023/04/13 13:42:48;;;;;;;5.57;2.53;;;;;;;20.37;46.79;95781.16;10538856;28;20040;-56
2023/04/13 13:48:07;;;;;;;4.47;2.17;;;;;;;20.35;47.29;95782.28;10553889;28;20039;-56
2023/04/13 13:53:35;;;;;;;4.28;1.65;;;;;;;20.32;45.04;95782.97;10538275;28;20044;-56
2023/04/13 13:58:55;;;;;;;4.57;2.15;;;;;;;20.32;46.09;95777.56;10543947;28;20055;-56
2023/04/13 14:04:14;;;;;;;1.50;1.00;;;;;;;20.27;39.60;95775.16;10553239;28;20546;-57
2023/04/13 14:09:34;;;;;;;0.88;0.70;;;;;;;19.93;32.79;95782.09;10553108;28;20055;-56
2023/04/13 14:14:53;;;;;;;1.88;0.75;;;;;;;19.83;33.66;95780.72;10552987;28;20114;-56
2023/04/13 14:20:12;;;;;;;2.15;0.90;;;;;;;19.93;37.48;95780.22;10551826;28;20534;-56
2023/04/13 14:25:32;;;;;;;3.75;0.77;;;;;;;20.01;38.54;95778.44;10538941;28;20093;-57
2023/04/13 14:30:51;;;;;;;2.95;0.90;;;;;;;20.05;38.65;95773.91;10539168;28;20052;-56
2023/04/13 14:36:13;;;;;;;4.25;0.80;;;;;;;20.08;38.93;95781.31;10539122;28;20048;-56
2023/04/13 14:41:33;;;;;;;2.00;1.00;;;;;;;20.09;39.21;95780.19;10552398;28;20385;-55
2023/04/13 14:46:53;;;;;;;3.60;1.05;;;;;;;20.09;39.85;95782.88;10552361;28;20044;-57
2023/04/13 14:52:13;;;;;;;3.50;0.90;;;;;;;20.11;40.46;95786.00;10552240;28;20048;-56
2023/04/13 14:57:32;;;;;;;3.90;0.98;;;;;;;20.10;41.14;95778.25;10531182;28;20055;-56
2023/04/13 15:02:51;;;;;;;4.68;1.02;;;;;;;20.12;41.54;95797.59;10552054;28;20438;-56
2023/04/13 15:08:14;;;;;;;2.38;0.98;;;;;;;20.11;41.91;95794.13;10538633;28;20056;-55
2023/04/13 15:13:34;;;;;;;4.35;0.90;;;;;;;20.11;42.74;95810.34;10536671;28;20048;-56
2023/04/13 15:18:53;;;;;;;1.77;0.82;;;;;;;20.11;42.95;95807.66;10536578;28;20036;-56
2023/04/13 15:24:12;;;;;;;5.07;0.95;;;;;;;20.09;43.35;95811.81;10551518;28;20054;-55
2023/04/13 15:29:32;;;;;;;3.58;1.00;;;;;;;20.09;43.56;95818.03;10553213;28;20452;-57
2023/04/13 15:34:52;;;;;;;3.03;0.98;;;;;;;20.10;43.95;95816.88;10559205;28;20040;-56
2023/04/13 15:40:12;;;;;;;3.67;0.80;;;;;;;20.09;43.65;95803.72;10558865;28;20043;-56
2023/04/13 15:45:31;;;;;;;4.20;1.00;;;;;;;20.08;43.92;95815.66;10558736;28;20381;-56
2023/04/13 15:50:56;;;;;;;7.47;0.93;;;;;;;20.06;42.46;95816.00;10558583;28;20409;-55
2023/04/13 15:56:16;;;;;;;3.00;0.80;;;;;;;20.06;43.71;95804.44;10556210;28;20044;-55
2023/04/13 16:01:47;;;;;;;8.73;1.38;;;;;;;20.05;43.80;95797.44;10557967;28;20094;-54
2023/04/13 16:07:06;;;;;;;2.35;1.00;;;;;;;20.05;44.07;95800.13;10557821;28;20048;-55
2023/04/13 16:12:30;;;;;;;5.40;0.90;;;;;;;20.03;44.17;95788.91;10557654;28;20047;-56
2023/04/13 16:17:49;;;;;;;1.77;1.15;;;;;;;20.03;44.39;95799.72;10557473;28;20066;-56
2023/04/13 16:23:10;;;;;;;1.92;0.90;;;;;;;20.02;44.43;95798.94;10543743;28;20048;-55
2023/04/13 16:28:29;;;;;;;1.85;0.80;;;;;;;20.02;44.50;95788.13;10556974;28;20048;-55
2023/04/13 16:33:49;;;;;;;1.88;1.00;;;;;;;20.02;44.36;95792.75;10556783;28;20051;-55
2023/04/13 16:39:09;;;;;;;3.47;0.90;;;;;;;19.98;41.72;95787.25;10556658;28;20047;-55
2023/04/13 16:44:28;;;;;;;4.38;0.90;;;;;;;19.98;44.50;95789.97;10555740;28;20051;-53
2023/04/13 16:49:47;;;;;;;1.50;0.70;;;;;;;19.97;44.87;95780.25;10556197;28;20048;-54
2023/04/13 16:55:09;;;;;;;2.00;0.85;;;;;;;19.98;45.08;95789.19;10555985;28;20044;-53
2023/04/13 17:00:29;;;;;;;2.92;0.90;;;;;;;19.97;45.31;95817.34;10541718;28;20052;-56
2023/04/13 17:05:49;;;;;;;3.20;1.02;;;;;;;19.97;45.42;95828.16;10555593;28;20051;-55
2023/04/13 17:11:08;;;;;;;2.72;1.00;;;;;;;19.96;45.54;95835.47;10541885;28;20044;-56
2023/04/13 17:16:28;;;;;;;4.20;1.10;;;;;;;19.96;45.64;95849.00;10555067;28;20062;-56
2023/04/13 17:21:49;;;;;;;2.60;1.13;;;;;;;19.95;45.85;95852.81;10554794;28;20036;-56
2023/04/13 17:27:09;;;;;;;9.48;5.20;;;;;;;19.92;42.75;95859.72;10554668;28;20073;-54
2023/04/13 17:32:29;;;;;;;3.92;1.70;;;;;;;19.91;44.62;95868.94;10540577;28;20040;-56
2023/04/13 17:37:48;;;;;;;2.50;1.90;;;;;;;19.88;43.86;95874.28;10554201;28;20051;-56
2023/04/13 17:43:08;;;;;;;4.97;2.50;;;;;;;19.87;43.96;95854.56;10554015;28;20036;-57
2023/04/13 17:48:28;;;;;;;10.90;3.85;;;;;;;19.87;45.36;95859.19;10553839;28;20044;-56
2023/04/13 17:53:47;;;;;;;10.45;4.05;;;;;;;19.88;47.67;95861.56;10552611;28;20055;-57
2023/04/13 17:59:06;;;;;;;8.13;3.45;;;;;;;19.90;47.28;95867.38;10543426;28;20056;-56
2023/04/13 18:04:25;;;;;;;11.20;3.97;;;;;;;19.90;47.29;95877.44;10553057;28;20039;-57
2023/04/13 18:09:45;;;;;;;8.15;3.65;;;;;;;19.90;47.29;95880.13;10553034;28;20061;-56
2023/04/13 18:15:06;;;;;;;6.20;3.33;;;;;;;19.89;47.37;95884.72;10520909;28;20500;-56
2023/04/13 18:20:25;;;;;;;6.97;3.35;;;;;;;19.88;47.45;95890.50;10552671;28;20040;-55
2023/04/13 18:25:49;;;;;;;6.55;3.38;;;;;;;19.88;47.51;95902.09;10552704;28;20036;-56
2023/04/13 18:31:08;;;;;;;5.38;3.38;;;;;;;19.87;47.26;95902.44;10552661;28;20048;-55
2023/04/13 18:36:27;;;;;;;9.77;3.70;;;;;;;19.88;47.25;95914.84;10538428;28;20063;-53
2023/04/13 18:41:47;;;;;;;2.67;1.92;;;;;;;19.87;47.60;95924.84;10538371;28;20378;-54
2023/04/13 18:47:06;;;;;;;7.70;2.90;;;;;;;19.89;47.54;95921.78;10552230;28;20044;-54
2023/04/13 18:52:26;;;;;;;4.85;3.03;;;;;;;19.88;47.72;95921.00;10552217;28;20063;-56
2023/04/13 18:57:46;;;;;;;4.18;2.90;;;;;;;19.87;48.16;95922.13;10545867;28;20471;-56
2023/04/13 19:03:06;;;;;;;5.28;2.90;;;;;;;19.86;48.28;95909.78;10551996;28;20047;-54
2023/04/13 19:08:25;;;;;;;4.90;3.30;;;;;;;19.86;48.49;95914.41;10560232;28;20044;-55
2023/04/13 19:13:46;;;;;;;6.80;3.10;;;;;;;19.86;48.65;95912.47;10546604;28;20059;-54
2023/04/13 19:19:09;;;;;;;5.28;3.13;;;;;;;19.84;48.81;95903.94;10559893;28;20450;-55
2023/04/13 19:24:30;;;;;;;4.35;2.72;;;;;;;19.85;48.97;95902.00;10559540;28;20400;-53
2023/04/13 19:29:49;;;;;;;3.83;2.50;;;;;;;19.84;49.12;95912.03;10559309;28;20051;-54
2023/04/13 19:35:09;;;;;;;4.20;2.83;;;;;;;19.85;49.23;95907.41;10559212;28;20110;-54
2023/04/13 19:40:28;;;;;;;5.22;3.10;;;;;;;19.84;49.33;95906.63;10545435;28;20055;-53
2023/04/13 19:45:48;;;;;;;5.22;2.90;;;;;;;19.84;49.41;95901.22;10558734;28;20119;-54
2023/04/13 19:51:07;;;;;;;4.13;2.33;;;;;;;19.83;49.49;95893.47;10558499;28;20043;-58
2023/04/13 19:56:29;;;;;;;4.22;2.75;;;;;;;19.83;49.46;95878.00;10556221;28;20459;-52
2023/04/13 20:01:48;;;;;;;6.13;3.03;;;;;;;19.82;49.46;95865.66;10558000;28;20499;-54
2023/04/13 20:07:08;;;;;;;4.68;2.58;;;;;;;19.81;49.62;95858.66;10557948;28;20074;-56
2023/04/13 20:12:27;;;;;;;7.20;3.15;;;;;;;19.81;49.07;95866.78;10557804;28;20453;-55
2023/04/13 20:17:47;;;;;;;2.88;1.90;;;;;;;19.80;49.89;95840.88;10556515;28;20044;-47
2023/04/13 20:23:08;;;;;;;4.97;2.95;;;;;;;19.81;50.09;95826.22;10542050;28;20051;-51
2023/04/13 20:28:27;;;;;;;5.97;3.03;;;;;;;19.84;49.98;95846.38;10541963;28;20051;-46
2023/04/13 20:33:47;;;;;;;5.95;2.78;;;;;;;19.83;50.06;95861.81;10557022;28;20480;-49
2023/04/13 20:39:08;;;;;;;5.18;2.70;;;;;;;19.82;49.96;95879.16;10543332;28;20052;-46
2023/04/13 20:44:28;;;;;;;5.28;2.65;;;;;;;19.81;50.00;95879.50;10556459;28;20044;-47
2023/04/13 20:49:50;;;;;;;5.13;2.75;;;;;;;19.81;49.98;95891.09;10556229;28;20059;-47
2023/04/13 20:55:13;;;;;;;6.80;2.83;;;;;;;19.80;49.92;95892.25;10556019;28;20036;-47
2023/04/13 21:00:33;;;;;;;3.75;2.50;;;;;;;19.78;49.81;95891.00;10541451;28;20051;-47
2023/04/13 21:05:52;;;;;;;4.20;2.80;;;;;;;19.76;49.74;95875.16;10555685;28;20044;-46
2023/04/13 21:11:12;;;;;;;3.13;2.45;;;;;;;19.76;49.52;95864.34;10555310;28;20052;-48
2023/04/13 21:16:31;;;;;;;4.07;2.45;;;;;;;19.75;49.44;95860.06;10555136;28;20040;-48
2023/04/13 21:21:52;;;;;;;3.47;2.53;;;;;;;19.73;49.23;95859.63;10554908;28;20040;-47
2023/04/13 21:27:12;;;;;;;4.38;2.58;;;;;;;19.72;49.18;95858.06;10554497;28;20044;-48
2023/04/13 21:32:32;;;;;;;3.08;2.40;;;;;;;19.70;49.06;95852.97;10554633;28;20412;-46
2023/04/13 21:37:51;;;;;;;3.92;2.70;;;;;;;19.69;49.02;95862.19;10554033;28;20047;-46
2023/04/13 21:43:11;;;;;;;3.97;2.40;;;;;;;19.69;48.81;95853.31;10554006;28;20044;-46
2023/04/13 21:48:30;;;;;;;2.92;2.38;;;;;;;19.67;48.84;95842.06;10553969;28;20044;-47
2023/04/13 21:53:50;;;;;;;4.40;2.58;;;;;;;19.66;48.79;95830.50;10553475;28;20055;-48
2023/04/13 21:59:10;;;;;;;2.97;2.15;;;;;;;19.65;48.73;95826.19;10539573;28;20066;-46
2023/04/13 22:04:29;;;;;;;3.20;2.28;;;;;;;19.65;48.70;95833.53;10553299;28;20036;-48
2023/04/13 22:09:49;;;;;;;5.13;2.40;;;;;;;19.65;48.67;95845.13;10553263;28;20044;-48
2023/04/13 22:15:08;;;;;;;4.43;2.53;;;;;;;19.64;48.59;95840.06;10553192;28;20040;-47
2023/04/13 22:20:28;;;;;;;3.55;2.50;;;;;;;19.63;48.56;95852.78;10552869;28;20036;-47
2023/04/13 22:26:00;;;;;;;3.17;2.38;;;;;;;19.62;48.32;95853.13;10553014;28;20044;-47
2023/04/13 22:31:19;;;;;;;3.42;2.22;;;;;;;19.60;48.48;95855.38;10552748;28;20569;-46
2023/04/13 22:36:38;;;;;;;3.38;2.33;;;;;;;19.60;48.46;95858.91;10552575;28;20040;-50
2023/04/13 22:41:58;;;;;;;3.08;2.05;;;;;;;19.59;48.31;95851.91;10558745;28;20047;-47
2023/04/13 22:47:17;;;;;;;3.45;2.30;;;;;;;19.59;48.27;95853.84;10547705;28;20078;-49
2023/04/13 22:52:37;;;;;;;2.50;1.90;;;;;;;19.57;48.32;95837.97;10561011;28;20420;-46
2023/04/13 22:57:56;;;;;;;2.40;1.98;;;;;;;19.57;48.19;95843.38;10554027;28;20052;-49
2023/04/13 23:03:15;;;;;;;3.95;1.95;;;;;;;19.55;48.27;95830.19;10560249;28;20044;-46
2023/04/13 23:08:35;;;;;;;3.75;2.22;;;;;;;19.55;48.18;95832.13;10560412;28;20044;-47
2023/04/13 23:13:54;;;;;;;2.90;2.10;;;;;;;19.53;48.21;95829.78;10560118;28;20047;-46
2023/04/13 23:19:16;;;;;;;3.38;2.00;;;;;;;19.52;48.13;95836.31;10559831;28;20074;-47
2023/04/13 23:24:35;;;;;;;2.20;2.00;;;;;;;19.52;48.12;95836.31;10544806;28;20039;-48
2023/04/13 23:29:54;;;;;;;2.10;1.63;;;;;;;19.51;48.02;95828.56;10559635;28;20477;-46
2023/04/13 23:35:14;;;;;;;3.35;1.83;;;;;;;19.51;48.01;95831.25;10559118;28;20048;-47
2023/04/13 23:40:33;;;;;;;3.78;2.20;;;;;;;19.49;48.02;95828.13;10558998;28;20040;-47
2023/04/13 23:45:53;;;;;;;2.65;2.10;;;;;;;19.48;47.96;95830.03;10559015;28;20044;-47
2023/04/13 23:51:12;;;;;;;2.47;2.13;;;;;;;19.47;47.92;95828.47;10558647;28;20063;-47
2023/04/13 23:56:32;;;;;;;2.45;2.05;;;;;;;19.47;47.88;95833.09;10555639;28;20052;-48
